Airfield :
LOGIN :

Register | Disclaimer

   EN    FR    IT 

 










Legend :    VFR   Marginal VFR   IFR   Intensive IFR   Very Intensive IFR
Visi :
Ceiling :
>= 8 km
>= 3000ft
5 to 8 km
1000 to 3000 ft
1500m to 5 km
500 to 1000 ft
800 to 1500m
200 to 500 ft
< 800m
< 200 ft
Symbols :   Thunderstorms  Fog  Heavy snow  Heavy precipitations  Wind > 20 kt
SIGMETs :     Misc.  Thunderstorms  Icing  Turbulence  Mountain Waves  Volcanic Ashes






- Airport Elevation : 33 ft
- IATA code : MHZ


EGUN - RAF Mildenhall

CURRENT METAR :
  • 041255Z 22013KT 9999 BKN034 BKN200 17/14 A2996 RMK AO2A SLP149 T01740139 $

EXPIRED METARs :
  • 041155Z 22012KT 9999 BKN027 BKN180 17/14 A2997 RMK AO2A SLP152 T01670138 10171 20142 57005 $
  • 041055Z 21014KT 9999 BKN025 17/14 A2998 RMK AO2A SLP155 T01660135 $
  • 040955Z 22011KT 9999 BKN024 BKN180 16/13 A2999 RMK AO2A SLP159 T01610134 $

TAF TAF EGUN
Valid from the 04 at 12:00 until the 05 at 18:00 UTC


041200Z 0412/0518 21013KT 9999 BKN025 BKN180 WS018/24030KT 510204 QNH2989INS
TEMPO 0412/0421 22012G22KT SCT040 BKN180 510004
BECMG 0419/0421 20012KT 9999 FEW020 SCT060 BKN200 WS018/24035KT 510202 QNH2983INS
TEMPO 0421/0501 20015G25KT SCT020 BKN050 BKN200 510004
BECMG 0500/0501 20014KT 9999 SCT015 OVC025 WS017/23040KT 510203 QNH2971INS
TEMPO 0501/0505 20015G25KT BKN012 OVC020 510005
BECMG 0505/0506 21013G23KT 9999 BKN010 OVC020 510006 QNH2969INS
BECMG 0507/0509 21020G30KT 9999 VCSH SCT012 BKN025 OVC050 510006 QNH2965INS
TEMPO 0510/0514 21028G40KT 8000 -RA BR SCT008 BKN015 OVC030 620906 540003 510305
BECMG 0513/0514 26020G30KT 9999 VCSH FEW008 SCT018 BKN035 600609 510008 QNH2971INS
TEMPO 0514/0518 27028G40KT 8000 -RA BR SCT008 BKN018 OVC035 620609 540003 510305 TX19/0415Z TN14/0505Z



MET'MAP, your aeronautical weather chart ! - Copyright ORBIFLY December 2007 - Disclaimer

ORBIFLY MET'MAP TEAM :

Programming & Development : Alexandra Zaïnal
Original concept : Baudouin d'Aumeries
Technical & hardware support : Manuel Goepfert
Assistance : Marc-Olivier Méhu




SOURCES & CREDITS :

   NOAA